Time;durP1;ratioP1;P1;durP2;ratioP2;P2;SDS_P1;SDS_P2;PMS_P1;PMS_P2;Temp;Humidity;BMP_temperature;BMP_pressure;BME280_temperature;BME280_humidity;BME280_pressure;Samples;Min_cycle;Max_cycle;Signal;HPM_P1;HPM_P2
2022/09/07 00:01:24;;;;;;;1999.90;999.90;;;;;;;19.83;95.47;99055.44;8367298;28;20098;-77
2022/09/07 00:05:27;;;;;;;1999.90;999.90;;;;;;;19.84;95.50;99070.34;8384669;28;20043;-78
2022/09/07 00:09:28;;;;;;;1999.90;999.90;;;;;;;19.87;95.77;99049.09;8381716;28;20071;-77
2022/09/07 00:13:38;;;;;;;1999.90;999.90;;;;;;;19.94;95.77;99035.66;8345806;28;20033;-79
2022/09/07 00:17:41;;;;;;;1999.90;999.90;;;;;;;19.95;95.15;99025.03;8363385;28;20068;-79
2022/09/07 00:21:48;;;;;;;1999.90;999.90;;;;;;;19.96;94.98;98997.75;8360964;28;20449;-81
2022/09/07 00:26:06;;;;;;;1999.90;999.90;;;;;;;19.88;94.71;98986.72;8381507;28;20047;-80
2022/09/07 00:30:08;;;;;;;1999.90;999.90;;;;;;;19.88;94.89;98965.63;8394372;28;20063;-80
2022/09/07 00:34:09;;;;;;;;;;;;;;;19.90;95.05;98955.88;8372326;28;20104;-79
2022/09/07 00:38:17;;;;;;;1999.90;999.90;;;;;;;19.86;94.88;98938.50;8353314;28;20007;-79
2022/09/07 00:42:20;;;;;;;1999.90;999.90;;;;;;;19.83;94.77;98946.56;8373221;28;20449;-78
2022/09/07 00:46:24;;;;;;;1999.90;999.90;;;;;;;19.72;94.64;98957.63;8372863;28;20044;-80
2022/09/07 00:50:37;;;;;;;1999.90;999.90;;;;;;;19.67;94.90;98954.34;8381290;28;20044;-79
2022/09/07 00:54:46;;;;;;;1999.90;999.90;;;;;;;19.60;94.85;98961.72;8356676;28;20063;-79
2022/09/07 00:58:48;;;;;;;1999.90;999.90;;;;;;;19.53;95.31;98952.34;8364805;28;20139;-80
2022/09/07 01:02:52;;;;;;;1999.90;999.90;;;;;;;19.52;95.79;98936.63;8404328;28;20040;-79
2022/09/07 01:07:03;;;;;;;1999.90;999.90;;;;;;;19.55;95.85;98947.03;8381340;28;20036;-79
2022/09/07 01:11:05;;;;;;;1999.90;999.90;;;;;;;19.51;95.55;98948.09;8374073;28;20064;-79
2022/09/07 01:15:07;;;;;;;1999.90;999.90;;;;;;;19.44;95.55;98951.94;8381132;28;20082;-79
2022/09/07 01:19:48;;;;;;;1999.90;999.90;;;;;;;19.32;95.90;98967.38;8398418;28;20047;-79
2022/09/07 01:24:05;;;;;;;1999.90;999.90;;;;;;;19.27;95.73;98971.16;8390061;28;20044;-79
2022/09/07 01:28:10;;;;;;;1999.90;999.90;;;;;;;19.22;96.06;98991.59;8401638;28;20078;-79
2022/09/07 01:32:26;;;;;;;1999.90;999.90;;;;;;;19.14;96.62;98976.13;8376389;28;20037;-79
2022/09/07 01:36:47;;;;;;;1999.90;999.90;;;;;;;19.15;96.93;98983.09;8381273;28;20056;-79
2022/09/07 01:41:08;;;;;;;1999.90;999.90;;;;;;;19.11;96.47;98978.06;8376102;28;20044;-79
2022/09/07 01:45:12;;;;;;;1999.90;999.90;;;;;;;19.09;96.44;98979.91;8375476;28;20044;-79
2022/09/07 01:49:53;;;;;;;1999.90;999.90;;;;;;;19.06;96.95;98983.53;8383590;28;20059;-80
2022/09/07 01:53:59;;;;;;;1999.90;999.90;;;;;;;19.10;96.78;98993.00;8389634;28;20059;-79
2022/09/07 01:58:14;;;;;;;1999.90;999.90;;;;;;;19.08;97.22;98989.59;8377807;28;20068;-78
2022/09/07 02:02:19;;;;;;;1999.90;999.90;;;;;;;19.13;97.57;98987.59;8387636;28;20055;-79
2022/09/07 02:06:38;;;;;;;1999.90;999.90;;;;;;;19.14;97.45;98989.28;8391185;28;20114;-79
2022/09/07 02:10:47;;;;;;;1999.90;999.90;;;;;;;19.16;97.11;98995.34;8379879;28;20131;-79
2022/09/07 02:14:58;;;;;;;1999.90;999.90;;;;;;;19.10;96.75;98990.38;8359983;28;20220;-79
2022/09/07 02:19:12;;;;;;;1999.90;999.90;;;;;;;19.01;96.49;98993.41;8357570;28;20584;-79
2022/09/07 02:23:21;;;;;;;1999.90;999.90;;;;;;;18.92;96.46;98999.09;8388391;28;20136;-79
2022/09/07 02:27:33;;;;;;;1999.90;999.90;;;;;;;18.88;96.39;99000.16;8375465;28;20668;-79
2022/09/07 02:31:41;;;;;;;1999.90;999.90;;;;;;;18.76;96.00;99009.44;8375242;28;20073;-80
2022/09/07 02:35:43;;;;;;;1999.90;999.90;;;;;;;18.73;96.30;99017.47;8353916;28;20092;-79
2022/09/07 02:39:45;;;;;;;1999.90;999.90;;;;;;;18.67;95.80;99004.56;8341554;28;20068;-79
2022/09/07 02:43:47;;;;;;;;;;;;;;;18.60;95.88;98997.84;8337135;28;20053;-79
2022/09/07 02:48:05;;;;;;;1999.90;999.90;;;;;;;18.54;96.21;99001.59;8336311;28;19924;-79
2022/09/07 02:52:29;;;;;;;1999.90;999.90;;;;;;;18.53;96.38;99007.78;8335522;28;20052;-79
2022/09/07 02:56:56;;;;;;;1999.90;999.90;;;;;;;18.46;96.52;98997.56;8357511;28;20044;-79
2022/09/07 03:01:28;;;;;;;1999.90;999.90;;;;;;;18.42;96.36;99000.34;8362353;28;20848;-79
2022/09/07 03:05:36;;;;;;;1999.90;999.90;;;;;;;18.34;96.25;98998.97;8351078;28;20084;-79
2022/09/07 03:09:42;;;;;;;1999.90;999.90;;;;;;;18.28;95.82;99002.69;8346934;28;20041;-79
2022/09/07 03:13:44;;;;;;;1999.90;999.90;;;;;;;18.21;96.12;99008.28;8326654;28;20166;-79
2022/09/07 03:17:46;;;;;;;1999.90;999.90;;;;;;;18.05;96.10;99006.28;8330304;28;20040;-79
2022/09/07 03:21:48;;;;;;;1999.90;999.90;;;;;;;18.03;95.90;99002.84;8318590;28;20043;-79
2022/09/07 03:25:49;;;;;;;1999.90;999.90;;;;;;;18.06;96.32;99002.72;8342488;28;20045;-80
2022/09/07 03:29:51;;;;;;;1999.90;999.90;;;;;;;18.03;96.06;99000.22;8335227;28;20044;-79
2022/09/07 03:33:53;;;;;;;1999.90;999.90;;;;;;;18.01;96.07;99003.84;8315525;28;20128;-79
2022/09/07 03:37:56;;;;;;;1999.90;999.90;;;;;;;17.90;95.95;99022.66;8344772;28;20454;-79
2022/09/07 03:42:03;;;;;;;1999.90;999.90;;;;;;;17.87;95.85;99012.28;8338663;28;20052;-79
2022/09/07 03:46:06;;;;;;;1999.90;999.90;;;;;;;17.85;96.24;99008.84;8331251;28;20083;-79
2022/09/07 03:50:13;;;;;;;1999.90;999.90;;;;;;;17.85;96.51;99008.84;8338646;28;20060;-79
2022/09/07 03:54:15;;;;;;;1999.90;999.90;;;;;;;17.84;97.33;99017.66;8324977;28;20049;-79
2022/09/07 03:58:24;;;;;;;1999.90;999.90;;;;;;;17.85;97.92;99016.72;8330546;28;20044;-79
2022/09/07 04:02:25;;;;;;;1999.90;999.90;;;;;;;17.87;97.81;99017.53;8320623;28;20033;-79
2022/09/07 04:06:28;;;;;;;1999.90;999.90;;;;;;;17.89;97.74;99012.19;8336495;28;20049;-79
2022/09/07 04:10:30;;;;;;;1999.90;999.90;;;;;;;17.87;97.50;99020.16;8334199;28;20119;-79
2022/09/07 04:14:31;;;;;;;1999.90;999.90;;;;;;;17.84;97.41;99022.91;8339382;28;20049;-79
2022/09/07 04:18:34;;;;;;;1999.90;999.90;;;;;;;17.80;97.81;99021.31;8338338;28;20115;-79
2022/09/07 04:22:36;;;;;;;1999.90;999.90;;;;;;;17.78;97.42;99024.00;8348273;28;20416;-80
2022/09/07 04:26:38;;;;;;;1999.90;999.90;;;;;;;17.73;97.64;99017.22;8333460;28;20072;-79
2022/09/07 04:30:46;;;;;;;1999.90;999.90;;;;;;;17.71;97.89;99029.53;8323219;28;20041;-80
2022/09/07 04:34:50;;;;;;;;;;;;;;;17.71;97.77;99030.41;8367879;28;20678;-79
2022/09/07 04:38:58;;;;;;;1999.90;999.90;;;;;;;17.65;97.48;99028.00;8378184;28;19935;-79
2022/09/07 04:43:00;;;;;;;1999.90;999.90;;;;;;;17.59;97.18;99025.59;8374386;28;20051;-80
2022/09/07 04:47:01;;;;;;;1999.90;999.90;;;;;;;17.59;97.06;99022.97;8386566;28;20096;-79
2022/09/07 04:51:05;;;;;;;1999.90;999.90;;;;;;;17.60;96.84;99039.59;8365364;28;20118;-79
2022/09/07 04:55:07;;;;;;;1999.90;999.90;;;;;;;17.56;96.44;99033.59;8369664;28;20140;-79
2022/09/07 04:59:08;;;;;;;1999.90;999.90;;;;;;;17.49;96.33;99040.00;8364067;28;20037;-80
2022/09/07 05:03:10;;;;;;;1999.90;999.90;;;;;;;17.44;96.37;99040.19;8393355;28;20044;-80
2022/09/07 05:07:11;;;;;;;1999.90;999.90;;;;;;;17.40;95.82;99038.56;8375525;28;20309;-78
2022/09/07 05:11:17;;;;;;;1999.90;999.90;;;;;;;17.36;95.85;99049.25;8363362;28;20811;-80
2022/09/07 05:15:18;;;;;;;1999.90;999.90;;;;;;;17.34;95.78;99053.69;8385149;28;20052;-77
2022/09/07 05:19:20;;;;;;;1999.90;999.90;;;;;;;17.25;96.16;99057.53;8381783;28;20127;-78
2022/09/07 05:23:23;;;;;;;1999.90;999.90;;;;;;;17.27;96.07;99065.34;8377717;28;20051;-78
2022/09/07 05:27:24;;;;;;;1999.90;999.90;;;;;;;17.22;96.63;99070.72;8361816;28;20672;-78
2022/09/07 05:31:26;;;;;;;1999.90;999.90;;;;;;;17.21;97.04;99082.16;8387990;28;20135;-77
2022/09/07 05:35:27;;;;;;;1999.90;999.90;;;;;;;17.26;96.69;99100.38;8360729;28;20131;-77
2022/09/07 05:39:29;;;;;;;1999.90;999.90;;;;;;;17.21;97.03;99109.25;8387005;28;20155;-78
2022/09/07 05:43:30;;;;;;;1999.90;999.90;;;;;;;17.27;97.68;99116.06;8385699;28;20052;-78
2022/09/07 05:47:32;;;;;;;1999.90;999.90;;;;;;;17.36;98.31;99113.09;8384174;28;20082;-78
2022/09/07 05:51:40;;;;;;;1999.90;999.90;;;;;;;17.46;97.64;99121.50;8364546;28;20048;-77
2022/09/07 05:55:41;;;;;;;1999.90;999.90;;;;;;;17.57;97.08;99114.06;8379399;28;20055;-78
2022/09/07 05:59:43;;;;;;;1999.90;999.90;;;;;;;17.66;96.13;99118.97;8381164;28;20051;-78
2022/09/07 06:03:51;;;;;;;1999.90;999.90;;;;;;;17.74;96.55;99114.31;8381163;28;20082;-77
2022/09/07 06:07:53;;;;;;;1999.90;999.90;;;;;;;17.98;95.92;99119.56;8375875;28;20143;-77
2022/09/07 06:11:54;;;;;;;1999.90;999.90;;;;;;;18.31;94.02;99122.59;8385258;28;20327;-77
2022/09/07 06:16:02;;;;;;;1999.90;999.90;;;;;;;18.53;93.24;99115.59;8356448;28;20080;-78
2022/09/07 06:20:06;;;;;;;1999.90;999.90;;;;;;;18.87;91.54;99125.59;8362961;28;20122;-78
2022/09/07 06:24:08;;;;;;;1999.90;999.90;;;;;;;19.16;89.37;99124.31;8358630;28;20060;-77
2022/09/07 06:28:09;;;;;;;1999.90;999.90;;;;;;;19.44;87.47;99128.38;8369506;28;20048;-76
2022/09/07 06:32:11;;;;;;;1999.90;999.90;;;;;;;19.71;85.67;99126.28;8356978;28;20131;-77
2022/09/07 06:36:33;;;;;;;1999.90;999.90;;;;;;;19.78;85.05;99127.75;8335352;28;20060;-77
2022/09/07 06:40:42;;;;;;;1999.90;999.90;;;;;;;20.03;84.20;99125.66;8304720;28;20077;-77
2022/09/07 06:44:44;;;;;;;1999.90;999.90;;;;;;;20.20;82.87;99130.13;8341601;28;20469;-78
2022/09/07 06:48:46;;;;;;;1999.90;999.90;;;;;;;20.27;83.03;99131.53;8325063;28;20566;-78
2022/09/07 06:52:53;;;;;;;1999.90;999.90;;;;;;;20.40;82.07;99137.94;8324697;28;20040;-78
2022/09/07 06:57:15;;;;;;;1999.90;999.90;;;;;;;20.90;81.37;99141.69;8342190;28;20057;-77
2022/09/07 07:01:19;;;;;;;1999.90;999.90;;;;;;;21.25;80.25;99138.13;8307032;28;20037;-77
2022/09/07 07:05:24;;;;;;;1999.90;999.90;;;;;;;21.27;78.95;99141.53;8340869;28;20049;-77
2022/09/07 07:09:28;;;;;;;1999.90;999.90;;;;;;;20.96;78.47;99144.84;8327318;28;20037;-77
2022/09/07 07:13:33;;;;;;;1999.90;999.90;;;;;;;21.06;79.13;99137.34;8333391;28;20048;-78
2022/09/07 07:17:45;;;;;;;1999.90;999.90;;;;;;;21.27;78.55;99140.69;8326563;28;20049;-78
2022/09/07 07:22:00;;;;;;;1999.90;999.90;;;;;;;21.73;77.41;99146.19;8343361;28;20048;-77
2022/09/07 07:26:27;;;;;;;1999.90;999.90;;;;;;;21.93;75.50;99146.81;8324202;28;20056;-77
2022/09/07 07:30:28;;;;;;;1999.90;999.90;;;;;;;21.75;75.55;99139.88;8307620;28;20041;-78
2022/09/07 07:34:39;;;;;;;1999.90;999.90;;;;;;;21.55;76.30;99150.66;8362777;28;20068;-78
2022/09/07 07:38:49;;;;;;;1999.90;999.90;;;;;;;21.41;76.09;99154.88;8359199;28;20047;-78
2022/09/07 07:42:58;;;;;;;1999.90;999.90;;;;;;;21.38;76.09;99160.31;8377949;28;20040;-78
2022/09/07 07:46:59;;;;;;;1999.90;999.90;;;;;;;21.39;77.09;99167.31;8366954;28;20776;-77
2022/09/07 07:51:08;;;;;;;1999.90;999.90;;;;;;;21.43;77.12;99168.00;8353178;28;20128;-78
2022/09/07 07:55:12;;;;;;;1999.90;999.90;;;;;;;21.51;76.64;99163.16;8368223;28;20048;-77
2022/09/07 07:59:34;;;;;;;1999.90;999.90;;;;;;;21.47;77.41;99173.97;8354999;28;20447;-77
2022/09/07 08:03:39;;;;;;;1999.90;999.90;;;;;;;21.33;78.92;99180.81;8378245;28;20056;-78
2022/09/07 08:07:40;;;;;;;1999.90;999.90;;;;;;;21.25;79.12;99182.16;8365676;28;20082;-78
2022/09/07 08:11:42;;;;;;;1999.90;999.90;;;;;;;21.43;79.19;99181.22;8363704;28;20028;-78
2022/09/07 08:15:45;;;;;;;1999.90;999.90;;;;;;;22.14;78.24;99183.63;8350487;28;20049;-78
2022/09/07 08:19:54;;;;;;;1999.90;999.90;;;;;;;22.59;74.26;99188.97;8377268;28;20075;-78
2022/09/07 08:23:55;;;;;;;1999.90;999.90;;;;;;;22.56;73.66;99188.28;8353106;28;20044;-78
2022/09/07 08:28:04;;;;;;;1999.90;999.90;;;;;;;22.79;71.07;99181.69;8396470;28;20044;-79
2022/09/07 08:32:06;;;;;;;1999.90;999.90;;;;;;;22.86;71.03;99183.09;8383623;28;20102;-78
2022/09/07 08:36:11;;;;;;;1999.90;999.90;;;;;;;22.75;69.94;99182.81;8365022;28;20065;-79
2022/09/07 08:40:19;;;;;;;1999.90;999.90;;;;;;;23.39;68.52;99192.31;8327901;28;20041;-77
2022/09/07 08:45:03;;;;;;;1999.90;999.90;;;;;;;24.16;67.08;99189.31;8334900;28;20059;-78
2022/09/07 08:49:12;;;;;;;1999.90;999.90;;;;;;;23.77;65.19;99182.06;8309537;28;20044;-78
2022/09/07 08:53:16;;;;;;;1999.90;999.90;;;;;;;23.75;64.93;99183.94;8333240;28;20096;-78
2022/09/07 08:57:25;;;;;;;1999.90;999.90;;;;;;;23.99;64.56;99174.47;8317125;28;20046;-78
2022/09/07 09:01:39;;;;;;;1999.90;999.90;;;;;;;24.44;63.23;99183.13;8300549;28;20041;-78
2022/09/07 09:05:57;;;;;;;1999.90;999.90;;;;;;;24.87;62.37;99194.44;8329764;28;20098;-78
2022/09/07 09:10:35;;;;;;;1999.90;999.90;;;;;;;24.81;61.45;99188.69;8325320;28;20041;-76
2022/09/07 09:15:07;;;;;;;1999.90;999.90;;;;;;;24.51;61.05;99188.91;8342799;28;20470;-76
2022/09/07 09:19:32;;;;;;;;;;;;;;;24.52;62.96;99195.91;8336485;28;20884;-78
2022/09/07 09:23:42;;;;;;;1999.90;999.90;;;;;;;24.73;63.38;99191.84;8334375;28;19977;-77
2022/09/07 09:27:44;;;;;;;1999.90;999.90;;;;;;;24.72;63.10;99195.44;8320627;28;20041;-77
2022/09/07 09:31:45;;;;;;;1999.90;999.90;;;;;;;24.89;61.12;99199.66;8336164;28;20052;-78
2022/09/07 09:35:50;;;;;;;1999.90;999.90;;;;;;;24.74;61.09;99198.84;8331085;28;20056;-77
2022/09/07 09:39:56;;;;;;;1999.90;999.90;;;;;;;24.50;61.65;99208.44;8341657;28;20486;-78
2022/09/07 09:44:04;;;;;;;1999.90;999.90;;;;;;;24.30;62.11;99209.72;8324469;28;20060;-77
2022/09/07 09:48:16;;;;;;;1999.90;999.90;;;;;;;24.26;62.41;99216.13;8335297;28;20060;-77
2022/09/07 09:52:20;;;;;;;1999.90;999.90;;;;;;;24.37;61.66;99213.66;8308308;28;20667;-77
2022/09/07 09:56:41;;;;;;;1999.90;999.90;;;;;;;24.36;62.28;99209.31;8323896;28;20033;-76
2022/09/07 10:00:54;;;;;;;1999.90;999.90;;;;;;;24.27;61.03;99208.06;8348795;28;20070;-78
2022/09/07 10:05:33;;;;;;;1999.90;999.90;;;;;;;23.79;60.17;99190.75;8345317;28;20055;-77
2022/09/07 10:09:40;;;;;;;1999.90;999.90;;;;;;;23.82;61.34;99187.91;8332039;28;20045;-77
2022/09/07 10:13:54;;;;;;;1999.90;999.90;;;;;;;24.06;61.22;99180.25;8342265;28;20053;-77
2022/09/07 10:17:57;;;;;;;1999.90;999.90;;;;;;;24.27;61.01;99184.19;8336955;28;20106;-78
2022/09/07 10:22:02;;;;;;;1999.90;999.90;;;;;;;24.15;58.90;99182.31;8320553;28;20161;-77
2022/09/07 10:26:27;;;;;;;1999.90;999.90;;;;;;;24.48;58.57;99174.03;8339735;28;20107;-77
2022/09/07 10:30:35;;;;;;;1999.90;999.90;;;;;;;25.02;58.05;99165.19;8340163;28;20531;-79
2022/09/07 10:35:00;;;;;;;1999.90;999.90;;;;;;;25.31;55.64;99172.03;8320003;28;20495;-77
2022/09/07 10:39:25;;;;;;;1999.90;999.90;;;;;;;24.89;54.74;99171.28;8350479;28;20048;-78
2022/09/07 10:43:42;;;;;;;1999.90;999.90;;;;;;;24.57;56.59;99157.47;8383478;28;20044;-77
2022/09/07 10:48:08;;;;;;;1999.90;999.90;;;;;;;24.40;56.47;99168.34;8372363;28;20094;-78
2022/09/07 10:52:21;;;;;;;1999.90;999.90;;;;;;;24.20;56.38;99158.97;8371701;28;20082;-77
2022/09/07 10:56:32;;;;;;;1999.90;999.90;;;;;;;24.51;58.72;99157.03;8346506;28;20070;-76
2022/09/07 11:00:59;;;;;;;1999.90;999.90;;;;;;;24.96;58.56;99147.84;8366894;28;20043;-77
2022/09/07 11:05:12;;;;;;;1999.90;999.90;;;;;;;25.27;56.68;99142.16;8365311;28;20045;-77
2022/09/07 11:09:19;;;;;;;1999.90;999.90;;;;;;;25.00;55.18;99144.06;8368874;28;20040;-77
2022/09/07 11:13:27;;;;;;;1999.90;999.90;;;;;;;24.61;55.71;99144.88;8373596;28;20072;-77
2022/09/07 11:17:29;;;;;;;1999.90;999.90;;;;;;;24.44;56.97;99132.72;8363157;28;20064;-77
2022/09/07 11:21:41;;;;;;;1999.90;999.90;;;;;;;24.32;56.84;99131.69;8344695;28;20047;-76
2022/09/07 11:26:13;;;;;;;1999.90;999.90;;;;;;;24.27;56.95;99143.53;8371743;28;20114;-76
2022/09/07 11:30:18;;;;;;;1999.90;999.90;;;;;;;24.48;55.13;99136.00;8359605;28;20036;-77
2022/09/07 11:34:36;;;;;;;1999.90;999.90;;;;;;;24.54;53.32;99133.78;8333782;28;20103;-78
2022/09/07 11:38:46;;;;;;;1999.90;999.90;;;;;;;24.68;54.74;99140.84;8326719;28;20462;-78
2022/09/07 11:43:01;;;;;;;1999.90;999.90;;;;;;;24.76;52.73;99140.31;8331379;28;20037;-78
2022/09/07 11:47:36;;;;;;;1999.90;999.90;;;;;;;24.66;52.56;99135.66;8322170;28;20052;-78
2022/09/07 11:51:47;;;;;;;1999.90;999.90;;;;;;;24.70;54.52;99133.63;8336528;28;21056;-78
2022/09/07 11:56:00;;;;;;;1999.90;999.90;;;;;;;24.68;53.27;99133.72;8322527;28;20774;-78
2022/09/07 12:00:20;;;;;;;1999.90;999.90;;;;;;;24.75;53.34;99128.84;8337031;28;20103;-77
2022/09/07 12:04:30;;;;;;;1999.90;999.90;;;;;;;24.92;53.25;99120.59;8332261;28;20092;-77
2022/09/07 12:08:47;;;;;;;1999.90;999.90;;;;;;;25.18;52.39;99105.59;8332934;28;20036;-77
2022/09/07 12:13:18;;;;;;;1999.90;999.90;;;;;;;25.26;51.54;99100.59;8347029;28;20045;-78
2022/09/07 12:17:55;;;;;;;1999.90;999.90;;;;;;;25.06;51.16;99095.81;8333367;28;20037;-77
2022/09/07 12:22:00;;;;;;;1999.90;999.90;;;;;;;24.94;51.88;99088.63;8327514;28;20049;-77
2022/09/07 12:26:32;;;;;;;1999.90;999.90;;;;;;;24.96;52.16;99074.31;8349388;28;20048;-76
2022/09/07 12:30:33;;;;;;;1999.90;999.90;;;;;;;25.32;52.47;99088.69;8325742;28;20045;-77
2022/09/07 12:34:34;;;;;;;1999.90;999.90;;;;;;;25.96;51.43;99091.28;8350224;28;20733;-76
2022/09/07 12:39:04;;;;;;;1999.90;999.90;;;;;;;26.24;48.47;99082.13;8375670;28;20041;-77
2022/09/07 12:43:12;;;;;;;1999.90;999.90;;;;;;;26.24;48.31;99074.16;8345451;28;20131;-77
2022/09/07 12:47:14;;;;;;;1999.90;999.90;;;;;;;26.08;48.90;99080.59;8385507;28;20051;-77
2022/09/07 12:51:30;;;;;;;1999.90;999.90;;;;;;;25.73;48.41;99084.94;8371384;28;20359;-77
2022/09/07 12:56:15;;;;;;;1999.90;999.90;;;;;;;25.72;49.95;99080.59;8370035;28;20052;-75
2022/09/07 13:00:22;;;;;;;1999.90;999.90;;;;;;;25.26;49.39;99094.41;8362221;28;20052;-78
2022/09/07 13:05:00;;;;;;;1999.90;999.90;;;;;;;25.04;50.58;99088.91;8390572;28;20044;-75
2022/09/07 13:09:37;;;;;;;1999.90;999.90;;;;;;;25.05;51.67;99088.78;8391321;28;20106;-76
2022/09/07 13:13:39;;;;;;;1999.90;999.90;;;;;;;25.10;51.22;99084.00;8372057;28;20790;-78
2022/09/07 13:18:01;;;;;;;1999.90;999.90;;;;;;;25.21;51.11;99069.97;8389935;28;20104;-78
2022/09/07 13:22:29;;;;;;;1999.90;999.90;;;;;;;24.83;49.45;99061.97;8375907;28;20506;-77
2022/09/07 13:26:53;;;;;;;1999.90;999.90;;;;;;;25.04;51.68;99044.56;8393774;28;20040;-77
2022/09/07 13:31:24;;;;;;;1999.90;999.90;;;;;;;25.37;51.91;99037.88;8379203;28;20032;-77
2022/09/07 13:35:28;;;;;;;1999.90;999.90;;;;;;;25.49;50.83;99037.81;8360201;28;20088;-77
2022/09/07 13:39:39;;;;;;;1999.90;999.90;;;;;;;25.34;50.59;99015.00;8332983;28;20051;-78
2022/09/07 13:43:48;;;;;;;1999.90;999.90;;;;;;;25.32;50.45;99013.44;8352417;28;20045;-78
2022/09/07 13:48:12;;;;;;;1999.90;999.90;;;;;;;25.33;50.92;99034.56;8338150;28;20114;-78
2022/09/07 13:52:22;;;;;;;1999.90;999.90;;;;;;;25.20;49.96;99021.28;8340950;28;20083;-78
2022/09/07 13:57:11;;;;;;;1999.90;999.90;;;;;;;25.18;50.92;98988.66;8346527;28;20118;-78
2022/09/07 14:01:23;;;;;;;1999.90;999.90;;;;;;;25.18;50.95;98996.63;8336703;28;20989;-78
2022/09/07 14:05:24;;;;;;;1999.90;999.90;;;;;;;25.11;50.70;98960.81;8349880;28;20048;-75
2022/09/07 14:09:33;;;;;;;1999.90;999.90;;;;;;;24.97;50.56;98969.75;8341071;28;20044;-78
2022/09/07 14:13:35;;;;;;;1999.90;999.90;;;;;;;24.81;51.14;98987.69;8344698;28;20040;-79
2022/09/07 14:17:36;;;;;;;1999.90;999.90;;;;;;;24.64;49.93;99001.28;8347603;28;20045;-78
2022/09/07 14:21:39;;;;;;;1999.90;999.90;;;;;;;24.48;50.88;98998.81;8349638;28;20883;-77
2022/09/07 14:25:48;;;;;;;1999.90;999.90;;;;;;;24.29;51.02;98996.56;8343996;28;20045;-77
2022/09/07 14:30:24;;;;;;;1999.90;999.90;;;;;;;24.21;52.38;99005.94;8348545;28;20052;-77
2022/09/07 14:34:32;;;;;;;1999.90;999.90;;;;;;;24.07;51.62;99013.03;8344048;28;20444;-78
2022/09/07 14:38:35;;;;;;;1999.90;999.90;;;;;;;23.96;52.81;99012.00;8356800;28;20416;-78
2022/09/07 14:42:57;;;;;;;1999.90;999.90;;;;;;;23.89;51.76;99000.97;8344180;28;20049;-78
2022/09/07 14:47:04;;;;;;;1999.90;999.90;;;;;;;23.87;51.93;98999.34;8328031;28;20041;-77
2022/09/07 14:51:06;;;;;;;1999.90;999.90;;;;;;;23.88;51.33;98999.25;8351662;28;20118;-78
2022/09/07 14:55:29;;;;;;;1999.90;999.90;;;;;;;23.93;51.45;98970.63;8342032;28;20056;-78
2022/09/07 14:59:35;;;;;;;1999.90;999.90;;;;;;;24.01;51.31;98967.47;8345296;28;20048;-78
2022/09/07 15:03:47;;;;;;;1999.90;999.90;;;;;;;23.96;49.63;98989.00;8348192;28;20045;-78
2022/09/07 15:08:00;;;;;;;1999.90;999.90;;;;;;;23.94;50.71;98972.34;8337646;28;20428;-78
2022/09/07 15:12:25;;;;;;;1999.90;999.90;;;;;;;23.87;50.42;98988.72;8339669;28;20049;-77
2022/09/07 15:16:41;;;;;;;1999.90;999.90;;;;;;;23.80;52.39;99004.19;8345706;28;20049;-77
2022/09/07 15:20:44;;;;;;;1999.90;999.90;;;;;;;23.70;52.43;98995.16;8340644;28;20527;-77
2022/09/07 15:24:46;;;;;;;1999.90;999.90;;;;;;;23.63;52.72;98992.03;8337705;28;20049;-78
2022/09/07 15:28:55;;;;;;;1999.90;999.90;;;;;;;23.51;53.65;98979.50;8322263;28;20047;-77
2022/09/07 15:33:12;;;;;;;1999.90;999.90;;;;;;;23.42;53.46;98993.38;8349031;28;20055;-78
2022/09/07 15:37:20;;;;;;;1999.90;999.90;;;;;;;23.40;54.58;98980.22;8340672;28;20053;-78
2022/09/07 15:41:48;;;;;;;1999.90;999.90;;;;;;;23.36;53.57;98961.97;8331754;28;20049;-78
2022/09/07 15:45:51;;;;;;;1999.90;999.90;;;;;;;23.40;54.85;98947.56;8341975;28;20045;-78
2022/09/07 15:49:53;;;;;;;1999.90;999.90;;;;;;;23.44;55.32;98936.66;8337731;28;20072;-78
2022/09/07 15:53:56;;;;;;;1999.90;999.90;;;;;;;23.47;54.68;98936.47;8322873;28;20415;-77
2022/09/07 15:58:14;;;;;;;1999.90;999.90;;;;;;;23.43;54.01;98932.31;8329215;28;20136;-78
2022/09/07 16:02:16;;;;;;;1999.90;999.90;;;;;;;23.40;55.48;98927.22;8358463;28;20744;-78
2022/09/07 16:06:38;;;;;;;1999.90;999.90;;;;;;;23.33;56.54;98906.50;8342625;28;20065;-78
2022/09/07 16:10:40;;;;;;;1999.90;999.90;;;;;;;23.18;56.01;98922.44;8337335;28;20049;-77
2022/09/07 16:14:41;;;;;;;1999.90;999.90;;;;;;;23.05;56.94;98936.56;8343424;28;20056;-78
2022/09/07 16:18:43;;;;;;;1999.90;999.90;;;;;;;22.96;59.20;98934.47;8342145;28;20106;-78
2022/09/07 16:22:47;;;;;;;1999.90;999.90;;;;;;;22.82;59.72;98928.25;8340496;28;20373;-77
2022/09/07 16:27:09;;;;;;;1999.90;999.90;;;;;;;22.73;61.58;98906.75;8347655;28;20049;-78
2022/09/07 16:31:15;;;;;;;1999.90;999.90;;;;;;;22.77;62.06;98895.00;8345478;28;20040;-77
2022/09/07 16:35:16;;;;;;;1999.90;999.90;;;;;;;22.74;60.16;98892.56;8366610;28;20485;-77
2022/09/07 16:39:18;;;;;;;1999.90;999.90;;;;;;;22.70;60.14;98894.56;8377515;28;20127;-77
2022/09/07 16:43:21;;;;;;;1999.90;999.90;;;;;;;22.64;61.61;98897.59;8374078;28;20098;-79
2022/09/07 16:47:23;;;;;;;1999.90;999.90;;;;;;;22.57;63.22;98902.38;8347743;28;20096;-77
2022/09/07 16:51:31;;;;;;;1999.90;999.90;;;;;;;22.47;63.07;98908.34;8355659;28;20118;-78
2022/09/07 16:55:32;;;;;;;1999.90;999.90;;;;;;;22.26;65.21;98913.13;8357627;28;20147;-78
2022/09/07 16:59:34;;;;;;;1999.90;999.90;;;;;;;22.16;65.50;98907.53;8359816;28;20145;-77
2022/09/07 17:03:36;;;;;;;1999.90;999.90;;;;;;;22.11;65.44;98896.38;8355802;28;20094;-77
2022/09/07 17:07:38;;;;;;;1999.90;999.90;;;;;;;22.07;64.80;98896.63;8358953;28;20056;-77
2022/09/07 17:11:40;;;;;;;1999.90;999.90;;;;;;;21.97;65.54;98898.97;8346420;28;20129;-77
2022/09/07 17:15:41;;;;;;;1999.90;999.90;;;;;;;21.80;67.84;98904.38;8375707;28;20070;-77
2022/09/07 17:19:43;;;;;;;1999.90;999.90;;;;;;;21.66;68.56;98911.31;8357805;28;20041;-77
2022/09/07 17:23:53;;;;;;;1999.90;999.90;;;;;;;21.58;70.18;98923.25;8356381;28;20642;-77
2022/09/07 17:27:56;;;;;;;1999.90;999.90;;;;;;;21.41;69.75;98926.84;8355212;28;20044;-78
2022/09/07 17:31:58;;;;;;;1999.90;999.90;;;;;;;21.39;69.72;98920.81;8340272;28;20114;-77
2022/09/07 17:36:21;;;;;;;1999.90;999.90;;;;;;;21.40;70.60;98899.59;8370641;28;20068;-77
2022/09/07 17:40:24;;;;;;;1999.90;999.90;;;;;;;21.39;69.67;98899.69;8358054;28;20048;-78
2022/09/07 17:44:26;;;;;;;1999.90;999.90;;;;;;;21.36;68.93;98892.78;8356031;28;20119;-78
2022/09/07 17:48:39;;;;;;;1999.90;999.90;;;;;;;21.23;69.59;98890.88;8344166;28;20156;-78
2022/09/07 17:52:42;;;;;;;1999.90;999.90;;;;;;;21.14;70.32;98889.56;8353479;28;20475;-77
2022/09/07 17:56:53;;;;;;;1999.90;999.90;;;;;;;20.98;70.75;98872.88;8365996;28;20439;-76
2022/09/07 18:01:02;;;;;;;1999.90;999.90;;;;;;;20.92;73.03;98849.47;8379130;28;20048;-77
2022/09/07 18:05:04;;;;;;;1999.90;999.90;;;;;;;20.82;72.23;98841.19;8362881;28;20049;-77
2022/09/07 18:09:13;;;;;;;1999.90;999.90;;;;;;;20.77;71.93;98853.81;8378620;28;20044;-77
2022/09/07 18:13:15;;;;;;;1999.90;999.90;;;;;;;20.51;72.86;98874.53;8360704;28;20089;-77
2022/09/07 18:17:16;;;;;;;1999.90;999.90;;;;;;;20.40;73.42;98861.03;8344697;28;20044;-77
2022/09/07 18:21:21;;;;;;;1999.90;999.90;;;;;;;20.35;74.39;98852.50;8366641;28;20094;-77
2022/09/07 18:25:22;;;;;;;1999.90;999.90;;;;;;;20.38;74.15;98846.22;8368456;28;20098;-77
2022/09/07 18:29:25;;;;;;;1999.90;999.90;;;;;;;20.18;74.07;98863.09;8385025;28;20045;-77